Time;durP1;ratioP1;P1;durP2;ratioP2;P2;SDS_P1;SDS_P2;PMS_P1;PMS_P2;Temp;Humidity;BMP_temperature;BMP_pressure;BME280_temperature;BME280_humidity;BME280_pressure;Samples;Min_cycle;Max_cycle;Signal;HPM_P1;HPM_P2
2023/07/10 00:08:01;;;;;;;1.85;1.05;;;;;;;;;;20950577;28;20237;-81
2023/07/10 00:18:08;;;;;;;4.72;1.17;;;;;;;;;;20899030;28;20353;-82
2023/07/10 00:28:18;;;;;;;2.25;1.15;;;;;;;;;;20930911;28;20702;-81
2023/07/10 00:38:28;;;;;;;2.42;1.25;;;30.20;92.90;;;;;;20959523;28;20210;-81
2023/07/10 00:48:40;;;;;;;4.70;1.40;;;30.10;89.90;;;;;;20891068;28;20241;-82
2023/07/10 00:58:44;;;;;;;1.98;1.17;;;;;;;;;;20895828;28;20217;-83
2023/07/10 01:09:04;;;;;;;2.03;1.30;;;29.90;97.00;;;;;;20912482;28;20298;-83
2023/07/10 01:19:13;;;;;;;2.70;1.17;;;;;;;;;;20854789;28;20262;-84
2023/07/10 01:29:22;;;;;;;2.10;1.23;;;;;;;;;;20945898;28;20286;-83
2023/07/10 01:39:44;;;;;;;3.05;1.15;;;;;;;;;;20890180;28;20687;-84
2023/07/10 01:49:45;;;;;;;2.72;1.23;;;;;;;;;;20922633;28;20718;-83
2023/07/10 01:59:47;;;;;;;2.47;1.00;;;;;;;;;;20948490;28;20266;-83
2023/07/10 02:09:51;;;;;;;2.47;1.35;;;;;;;;;;20956736;28;20568;-83
2023/07/10 02:19:53;;;;;;;1.90;1.13;;;;;;;;;;20935510;28;20225;-81
2023/07/10 02:29:54;;;;;;;4.57;1.52;;;;;;;;;;20927262;28;20274;-84
2023/07/10 02:39:56;;;;;;;2.20;1.20;;;;;;;;;;20915035;28;20657;-81
2023/07/10 02:49:58;;;;;;;2.10;1.10;;;;;;;;;;20919734;28;20730;-82
2023/07/10 02:59:59;;;;;;;1.77;1.30;;;;;;;;;;20914645;28;20233;-82
2023/07/10 03:10:03;;;;;;;2.15;1.15;;;;;;;;;;20931635;28;20244;-81
2023/07/10 03:20:05;;;;;;;2.95;1.40;;;;;;;;;;20930732;28;20315;-83
2023/07/10 03:30:07;;;;;;;3.20;1.27;;;;;;;;;;20883071;28;20232;-82
2023/07/10 03:40:09;;;;;;;2.92;1.42;;;28.80;97.30;;;;;;20941961;28;20637;-81
2023/07/10 03:50:11;;;;;;;2.60;1.40;;;;;;;;;;20967124;28;20245;-81
2023/07/10 04:00:12;;;;;;;2.85;1.58;;;;;;;;;;20949533;28;20237;-83
2023/07/10 04:10:14;;;;;;;2.30;1.30;;;;;;;;;;20905488;28;20236;-83
2023/07/10 04:20:16;;;;;;;4.95;2.05;;;;;;;;;;20900597;28;20266;-83
2023/07/10 04:30:17;;;;;;;2.78;1.40;;;;;;;;;;20928313;28;20699;-83
2023/07/10 04:40:19;;;;;;;2.60;1.27;;;;;;;;;;20943442;28;20220;-84
2023/07/10 04:50:21;;;;;;;2.60;1.20;;;;;;;;;;20969315;28;20243;-83
2023/07/10 05:00:23;;;;;;;2.90;1.50;;;;;;;;;;20940040;28;21146;-84
2023/07/10 05:10:26;;;;;;;3.75;1.40;;;28.60;99.90;;;;;;20947613;28;20318;-84
2023/07/10 05:20:27;;;;;;;2.63;1.33;;;;;;;;;;20910959;28;20277;-83
2023/07/10 05:30:29;;;;;;;1.92;1.30;;;;;;;;;;20959907;28;20231;-83
2023/07/10 05:40:34;;;;;;;3.35;1.65;;;;;;;;;;20905495;28;20274;-83
2023/07/10 05:50:37;;;;;;;2.13;1.35;;;;;;;;;;20930495;28;20273;-82
2023/07/10 06:00:39;;;;;;;1.83;1.30;;;;;;;;;;20948986;28;20236;-83
2023/07/10 06:10:41;;;;;;;2.22;1.58;;;;;;;;;;20932832;28;20290;-83
2023/07/10 06:20:43;;;;;;;2.55;1.40;;;;;;;;;;20903862;28;20221;-83
2023/07/10 06:30:46;;;;;;;2.13;1.50;;;;;;;;;;20991416;28;20748;-83
2023/07/10 06:40:49;;;;;;;1.80;1.38;;;29.20;99.90;;;;;;20968332;28;20365;-81
2023/07/10 06:50:54;;;;;;;2.53;1.40;;;;;;;;;;20945157;28;20714;-82
2023/07/10 07:00:56;;;;;;;3.97;1.35;;;;;;;;;;20926541;28;20583;-84
2023/07/10 07:10:58;;;;;;;2.80;1.45;;;;;;;;;;20966675;28;20638;-81
2023/07/10 07:21:01;;;;;;;2.05;1.38;;;;;;;;;;20903007;28;20255;-83
2023/07/10 07:31:03;;;;;;;2.25;1.17;;;;;;;;;;20916244;28;20233;-83
2023/07/10 07:41:06;;;;;;;2.88;1.70;;;;;;;;;;20938071;28;20721;-82
2023/07/10 07:51:10;;;;;;;2.83;1.33;;;;;;;;;;20886634;28;20237;-83
2023/07/10 08:01:12;;;;;;;2.08;1.35;;;;;;;;;;20931462;28;20267;-83
2023/07/10 08:11:15;;;;;;;2.17;1.48;;;;;;;;;;20924747;28;20675;-83
2023/07/10 08:21:19;;;;;;;2.80;1.58;;;;;;;;;;20979176;28;20240;-82
2023/07/10 08:31:21;;;;;;;2.70;1.75;;;;;;;;;;20907830;28;20225;-82
2023/07/10 08:41:23;;;;;;;2.10;1.42;;;;;;;;;;20927723;28;20226;-82
2023/07/10 08:51:40;;;;;;;2.90;1.70;;;;;;;;;;20931352;28;20239;-83
2023/07/10 09:01:45;;;;;;;1.90;1.48;;;31.10;99.90;;;;;;20926857;28;20271;-83
2023/07/10 09:11:49;;;;;;;2.42;1.40;;;;;;;;;;20940049;28;20233;-83
2023/07/10 09:21:51;;;;;;;3.63;1.63;;;;;;;;;;20925828;28;20371;-84
2023/07/10 09:31:55;;;;;;;3.30;1.40;;;;;;;;;;20927693;28;20229;-82
2023/07/10 09:41:58;;;;;;;4.40;1.55;;;;;;;;;;20932117;28;20248;-82
2023/07/10 09:52:01;;;;;;;2.05;1.50;;;;;;;;;;20925636;28;20217;-83
2023/07/10 10:02:13;;;;;;;4.15;1.80;;;;;;;;;;20933634;28;20244;-83
2023/07/10 10:12:25;;;;;;;2.80;1.40;;;30.80;99.40;;;;;;20934905;28;20283;-83
2023/07/10 10:22:30;;;;;;;2.58;1.65;;;;;;;;;;20947121;28;20217;-84
2023/07/10 10:32:58;;;;;;;2.88;1.45;;;31.70;88.20;;;;;;20925838;28;20595;-83
2023/07/10 10:43:07;;;;;;;1.67;1.17;;;;;;;;;;20905471;28;20519;-83
2023/07/10 10:53:09;;;;;;;1.35;0.98;;;;;;;;;;20885838;28;1124700;-82
2023/07/10 11:03:13;;;;;;;2.42;0.93;;;;;;;;;;20930920;28;20291;-82
2023/07/10 11:13:20;;;;;;;2.40;0.95;;;;;;;;;;20951155;28;20266;-84
2023/07/10 11:23:32;;;;;;;4.47;1.40;;;;;;;;;;20936700;28;20261;-83
2023/07/10 11:33:33;;;;;;;2.13;1.00;;;;;;;;;;20963358;28;20288;-83
2023/07/10 11:43:38;;;;;;;1.60;1.00;;;;;;;;;;20930032;28;20222;-82
2023/07/10 11:53:40;;;;;;;1.92;0.80;;;;;;;;;;20949734;28;20241;-82
2023/07/10 12:03:42;;;;;;;2.60;1.05;;;;;;;;;;20943496;28;20253;-81
2023/07/10 12:13:44;;;;;;;3.63;1.25;;;;;;;;;;20924570;28;20749;-84
2023/07/10 12:23:55;;;;;;;3.60;0.95;;;;;;;;;;20914789;28;20226;-82
2023/07/10 12:34:00;;;;;;;1.63;0.82;;;;;;;;;;20905051;28;20226;-84
2023/07/10 12:44:03;;;;;;;0.75;0.60;;;;;;;;;;20959179;28;20221;-84
2023/07/10 12:54:26;;;;;;;1.60;0.98;;;;;;;;;;20944952;28;20599;-82
2023/07/10 13:04:29;;;;;;;1.27;0.90;;;;;;;;;;20940536;28;20221;-87
2023/07/10 13:14:32;;;;;;;3.47;1.13;;;;;;;;;;20913988;28;20286;-85
2023/07/10 13:24:34;;;;;;;2.13;1.00;;;;;;;;;;20897850;28;20237;-86
2023/07/10 13:34:36;;;;;;;2.65;0.90;;;;;;;;;;20895636;28;20214;-83
2023/07/10 13:44:38;;;;;;;3.10;1.25;;;;;;;;;;20945157;28;20666;-85
2023/07/10 13:54:39;;;;;;;2.08;0.82;;;;;;;;;;20916829;28;20221;-86
2023/07/10 14:04:41;;;;;;;1.42;0.80;;;;;;;;;;20906507;28;20229;-87
2023/07/10 14:14:43;;;;;;;1.40;0.80;;;;;;;;;;20923163;28;20787;-84
2023/07/10 14:24:45;;;;;;;2.13;0.75;;;;;;;;;;20923722;28;20234;-83
2023/07/10 14:34:47;;;;;;;0.75;0.60;;;;;;;;;;20907668;28;20217;-86
2023/07/10 14:44:49;;;;;;;0.90;0.60;;;;;;;;;;20908451;28;20756;-85
2023/07/10 14:54:51;;;;;;;1.55;0.80;;;;;;;;;;20907202;28;20611;-83
2023/07/10 15:04:53;;;;;;;5.22;0.80;;;;;;;;;;20913137;28;20217;-86
2023/07/10 15:14:55;;;;;;;1.48;0.80;;;;;;;;;;20913013;28;20214;-87
2023/07/10 15:24:58;;;;;;;1.17;0.65;;;;;;;;;;20877880;28;20680;-85
2023/07/10 15:35:00;;;;;;;1.10;0.70;;;;;;;;;;20903957;28;20761;-87
2023/07/10 15:45:02;;;;;;;1.30;0.85;;;;;;;;;;20919844;28;20221;-85
2023/07/10 15:55:23;;;;;;;1.30;0.70;;;;;;;;;;20947168;28;20280;-84
2023/07/10 16:05:30;;;;;;;1.10;0.70;;;;;;;;;;20914591;28;20237;-83
2023/07/10 16:15:32;;;;;;;2.13;0.90;;;;;;;;;;20941138;28;20287;-82
2023/07/10 16:25:34;;;;;;;1.60;0.90;;;;;;;;;;20943851;28;20683;-83
2023/07/10 16:35:36;;;;;;;1.25;0.82;;;;;;;;;;20910363;28;20217;-85
2023/07/10 16:45:43;;;;;;;1.10;0.70;;;;;;;;;;20897284;28;20291;-83
2023/07/10 16:55:45;;;;;;;1.13;0.82;;;;;;;;;;20912731;28;20392;-82
2023/07/10 17:05:47;;;;;;;2.58;1.45;;;;;;;;;;20939272;28;20234;-83
2023/07/10 17:15:52;;;;;;;1.40;0.80;;;;;;;;;;20942678;28;20751;-83
2023/07/10 17:25:54;;;;;;;1.02;0.70;;;;;;;;;;20906660;28;20222;-85
2023/07/10 17:35:56;;;;;;;1.13;0.75;;;;;;;;;;20937211;28;20214;-82
2023/07/10 17:45:59;;;;;;;2.03;1.02;;;33.00;67.80;;;;;;20907956;28;20229;-83
2023/07/10 17:56:01;;;;;;;1.90;0.68;;;;;;;;;;20922098;28;20619;-81
2023/07/10 18:06:03;;;;;;;1.02;0.70;;;;;;;;;;20913857;28;20278;-82
2023/07/10 18:16:06;;;;;;;1.40;0.90;;;;;;;;;;20928717;28;20225;-82
2023/07/10 18:26:09;;;;;;;1.02;0.60;;;;;;;;;;20951146;28;20303;-84
2023/07/10 18:36:14;;;;;;;1.08;0.70;;;;;;;;;;20960495;28;20614;-83
2023/07/10 18:46:21;;;;;;;1.52;0.73;;;;;;;;;;20917639;28;20225;-84
2023/07/10 18:56:23;;;;;;;1.42;0.85;;;;;;;;;;20923317;28;20221;-83
2023/07/10 19:06:28;;;;;;;1.63;0.85;;;;;;;;;;20967022;28;20213;-85
2023/07/10 19:16:30;;;;;;;1.23;0.70;;;;;;;;;;20913605;28;20226;-84
2023/07/10 19:26:59;;;;;;;2.53;0.75;;;;;;;;;;20898546;28;20377;-86
2023/07/10 19:37:37;;;;;;;2.25;0.90;;;;;;;;;;20909274;22;20248;-69
2023/07/10 19:47:39;;;;;;;1.83;0.95;;;;;;;;;;20903057;28;20274;-70
2023/07/10 19:57:41;;;;;;;2.75;0.95;;;;;;;;;;21002280;28;20262;-70
2023/07/10 20:07:43;;;;;;;6.18;1.48;;;31.40;72.30;;;;;;20956016;28;20243;-71
2023/07/10 20:17:46;;;;;;;4.50;1.77;;;31.00;77.40;;;;;;21005658;28;20755;-69
2023/07/10 20:27:48;;;;;;;3.80;1.40;;;;;;;;;;21020542;28;20282;-70
2023/07/10 20:37:49;;;;;;;2.20;1.00;;;;;;;;;;20949932;28;20230;-71
2023/07/10 20:47:51;;;;;;;3.70;1.10;;;31.20;71.80;;;;;;20850088;28;20284;-70
2023/07/10 20:57:53;;;;;;;1.48;0.88;;;;;;;;;;20868760;28;20284;-70
2023/07/10 21:07:56;;;;;;;3.35;1.02;;;;;;;;;;20944767;28;20302;-69
2023/07/10 21:17:58;;;;;;;2.65;0.82;;;;;;;;;;20941572;22;20213;-70
2023/07/10 21:28:00;;;;;;;1.52;0.93;;;;;;;;;;20929916;28;20305;-71
2023/07/10 21:38:02;;;;;;;1.85;0.90;;;;;;;;;;20888225;28;20206;-71
2023/07/10 21:48:04;;;;;;;1.30;0.88;;;;;;;;;;20849404;28;20222;-71
2023/07/10 21:58:08;;;;;;;1.70;1.00;;;30.10;74.60;;;;;;20856593;28;20288;-71
2023/07/10 22:08:10;;;;;;;1.70;1.00;;;;;;;;;;20889713;28;20723;-71
2023/07/10 22:18:20;;;;;;;1.23;0.80;;;;;;;;;;20934879;28;20303;-71
2023/07/10 22:28:27;;;;;;;1.55;0.88;;;;;;;;;;20946940;28;20286;-71
2023/07/10 22:38:29;;;;;;;2.58;0.93;;;;;;;;;;20933725;28;20537;-70
2023/07/10 22:48:31;;;;;;;2.17;1.20;;;;;;;;;;20961770;28;20293;-71
2023/07/10 22:58:33;;;;;;;1.80;1.17;;;;;;;;;;20897194;28;20700;-71
2023/07/10 23:08:35;;;;;;;1.92;1.02;;;;;;;;;;20901427;28;20232;-71
2023/07/10 23:18:37;;;;;;;1.85;0.95;;;;;;;;;;20940317;28;20237;-71
2023/07/10 23:28:39;;;;;;;2.33;1.02;;;;;;;;;;20933135;28;20251;-71
2023/07/10 23:38:41;;;;;;;6.35;1.77;;;;;;;;;;20942237;28;20572;-71
2023/07/10 23:48:43;;;;;;;3.65;1.10;;;;;;;;;;20941052;28;20282;-71
2023/07/10 23:58:45;;;;;;;1.92;1.00;;;;;;;;;;20940851;28;20216;-71
